sensor_id;sensor_type;location;lat;lon;timestamp;pressure;altitude;pressure_sealevel;temperature
12918;BMP180;6526;54.312;13.092;2023-09-19T00:01:40;100699.00;;;23.00
12918;BMP180;6526;54.312;13.092;2023-09-19T00:04:07;100705.00;;;22.90
12918;BMP180;6526;54.312;13.092;2023-09-19T00:06:39;100704.00;;;23.00
12918;BMP180;6526;54.312;13.092;2023-09-19T00:09:05;100697.00;;;22.90
12918;BMP180;6526;54.312;13.092;2023-09-19T00:11:37;100696.00;;;22.90
12918;BMP180;6526;54.312;13.092;2023-09-19T00:14:04;100695.00;;;22.90
12918;BMP180;6526;54.312;13.092;2023-09-19T00:16:30;100704.00;;;22.90
12918;BMP180;6526;54.312;13.092;2023-09-19T00:18:59;100696.00;;;22.90
12918;BMP180;6526;54.312;13.092;2023-09-19T00:21:31;100701.00;;;22.90
12918;BMP180;6526;54.312;13.092;2023-09-19T00:23:56;100693.00;;;22.90
12918;BMP180;6526;54.312;13.092;2023-09-19T00:26:23;100696.00;;;23.00
12918;BMP180;6526;54.312;13.092;2023-09-19T00:28:52;100703.00;;;23.00
12918;BMP180;6526;54.312;13.092;2023-09-19T00:31:18;100701.00;;;23.00
12918;BMP180;6526;54.312;13.092;2023-09-19T00:33:44;100693.00;;;23.00
12918;BMP180;6526;54.312;13.092;2023-09-19T00:36:10;100699.00;;;23.00
12918;BMP180;6526;54.312;13.092;2023-09-19T00:38:36;100695.00;;;23.00
12918;BMP180;6526;54.312;13.092;2023-09-19T00:41:02;100700.00;;;22.90
12918;BMP180;6526;54.312;13.092;2023-09-19T00:43:28;100707.00;;;22.90
12918;BMP180;6526;54.312;13.092;2023-09-19T00:45:56;100699.00;;;22.80
12918;BMP180;6526;54.312;13.092;2023-09-19T00:48:23;100703.00;;;22.90
12918;BMP180;6526;54.312;13.092;2023-09-19T00:50:51;100711.00;;;22.60
12918;BMP180;6526;54.312;13.092;2023-09-19T00:53:20;100705.00;;;22.80
12918;BMP180;6526;54.312;13.092;2023-09-19T00:55:47;100702.00;;;22.80
12918;BMP180;6526;54.312;13.092;2023-09-19T00:58:13;100691.00;;;22.70
12918;BMP180;6526;54.312;13.092;2023-09-19T01:00:40;100694.00;;;22.70
12918;BMP180;6526;54.312;13.092;2023-09-19T01:03:10;100695.00;;;22.70
12918;BMP180;6526;54.312;13.092;2023-09-19T01:05:39;100688.00;;;22.70
12918;BMP180;6526;54.312;13.092;2023-09-19T01:08:05;100698.00;;;22.60
12918;BMP180;6526;54.312;13.092;2023-09-19T01:10:33;100691.00;;;22.60
12918;BMP180;6526;54.312;13.092;2023-09-19T01:13:05;100687.00;;;22.60
12918;BMP180;6526;54.312;13.092;2023-09-19T01:18:31;100692.00;;;22.50
12918;BMP180;6526;54.312;13.092;2023-09-19T01:21:11;100678.00;;;22.50
12918;BMP180;6526;54.312;13.092;2023-09-19T01:29:38;100686.00;;;22.60
12918;BMP180;6526;54.312;13.092;2023-09-19T01:32:06;100683.00;;;22.50
12918;BMP180;6526;54.312;13.092;2023-09-19T01:34:46;100671.00;;;22.50
12918;BMP180;6526;54.312;13.092;2023-09-19T01:37:13;100673.00;;;22.40
12918;BMP180;6526;54.312;13.092;2023-09-19T01:39:47;100676.00;;;22.40
12918;BMP180;6526;54.312;13.092;2023-09-19T01:47:55;100675.00;;;22.40
12918;BMP180;6526;54.312;13.092;2023-09-19T01:53:06;100678.00;;;22.30
12918;BMP180;6526;54.312;13.092;2023-09-19T01:55:37;100676.00;;;22.20
12918;BMP180;6526;54.312;13.092;2023-09-19T01:58:07;100680.00;;;22.20
12918;BMP180;6526;54.312;13.092;2023-09-19T02:00:37;100682.00;;;22.20
12918;BMP180;6526;54.312;13.092;2023-09-19T02:03:03;100671.00;;;22.20
12918;BMP180;6526;54.312;13.092;2023-09-19T02:05:30;100678.00;;;22.20
12918;BMP180;6526;54.312;13.092;2023-09-19T02:07:56;100678.00;;;22.20
12918;BMP180;6526;54.312;13.092;2023-09-19T02:10:24;100674.00;;;22.20
12918;BMP180;6526;54.312;13.092;2023-09-19T02:12:50;100669.00;;;22.20
12918;BMP180;6526;54.312;13.092;2023-09-19T02:15:17;100668.00;;;22.30
12918;BMP180;6526;54.312;13.092;2023-09-19T02:17:43;100670.00;;;22.30
12918;BMP180;6526;54.312;13.092;2023-09-19T02:20:11;100674.00;;;22.40
12918;BMP180;6526;54.312;13.092;2023-09-19T02:22:41;100671.00;;;22.40
12918;BMP180;6526;54.312;13.092;2023-09-19T02:25:08;100677.00;;;22.40
12918;BMP180;6526;54.312;13.092;2023-09-19T02:27:34;100661.00;;;22.40
12918;BMP180;6526;54.312;13.092;2023-09-19T02:30:00;100674.00;;;22.40
12918;BMP180;6526;54.312;13.092;2023-09-19T02:32:30;100682.00;;;22.50
12918;BMP180;6526;54.312;13.092;2023-09-19T02:34:57;100682.00;;;22.50
12918;BMP180;6526;54.312;13.092;2023-09-19T02:37:26;100686.00;;;22.40
12918;BMP180;6526;54.312;13.092;2023-09-19T02:39:52;100680.00;;;22.40
12918;BMP180;6526;54.312;13.092;2023-09-19T02:42:18;100681.00;;;22.40
12918;BMP180;6526;54.312;13.092;2023-09-19T02:44:44;100677.00;;;22.40
12918;BMP180;6526;54.312;13.092;2023-09-19T02:47:12;100677.00;;;22.40
12918;BMP180;6526;54.312;13.092;2023-09-19T02:49:40;100683.00;;;22.40
12918;BMP180;6526;54.312;13.092;2023-09-19T02:52:08;100690.00;;;22.40
12918;BMP180;6526;54.312;13.092;2023-09-19T02:54:34;100695.00;;;22.40
12918;BMP180;6526;54.312;13.092;2023-09-19T02:57:00;100681.00;;;22.40
12918;BMP180;6526;54.312;13.092;2023-09-19T02:59:26;100698.00;;;22.40
12918;BMP180;6526;54.312;13.092;2023-09-19T03:01:54;100682.00;;;22.30
12918;BMP180;6526;54.312;13.092;2023-09-19T03:04:20;100683.00;;;22.30
12918;BMP180;6526;54.312;13.092;2023-09-19T03:06:46;100710.00;;;22.30
12918;BMP180;6526;54.312;13.092;2023-09-19T03:09:14;100703.00;;;22.30
12918;BMP180;6526;54.312;13.092;2023-09-19T03:11:41;100713.00;;;22.30
12918;BMP180;6526;54.312;13.092;2023-09-19T03:14:08;100708.00;;;22.30
12918;BMP180;6526;54.312;13.092;2023-09-19T03:16:35;100714.00;;;22.20
12918;BMP180;6526;54.312;13.092;2023-09-19T03:19:03;100722.00;;;22.20
12918;BMP180;6526;54.312;13.092;2023-09-19T03:21:29;100722.00;;;22.20
12918;BMP180;6526;54.312;13.092;2023-09-19T03:23:56;100724.00;;;22.10
12918;BMP180;6526;54.312;13.092;2023-09-19T03:26:22;100730.00;;;22.10
12918;BMP180;6526;54.312;13.092;2023-09-19T03:28:48;100734.00;;;22.20
12918;BMP180;6526;54.312;13.092;2023-09-19T03:31:14;100726.00;;;22.20
12918;BMP180;6526;54.312;13.092;2023-09-19T03:33:40;100729.00;;;22.20
12918;BMP180;6526;54.312;13.092;2023-09-19T03:36:06;100726.00;;;22.20
12918;BMP180;6526;54.312;13.092;2023-09-19T03:38:33;100734.00;;;22.10
12918;BMP180;6526;54.312;13.092;2023-09-19T03:41:00;100734.00;;;22.10
12918;BMP180;6526;54.312;13.092;2023-09-19T03:43:26;100727.00;;;22.10
12918;BMP180;6526;54.312;13.092;2023-09-19T03:45:53;100728.00;;;22.10
12918;BMP180;6526;54.312;13.092;2023-09-19T03:48:20;100725.00;;;22.10
12918;BMP180;6526;54.312;13.092;2023-09-19T03:50:47;100720.00;;;22.10
12918;BMP180;6526;54.312;13.092;2023-09-19T03:53:14;100722.00;;;22.00
12918;BMP180;6526;54.312;13.092;2023-09-19T03:55:40;100723.00;;;22.00
12918;BMP180;6526;54.312;13.092;2023-09-19T03:58:06;100719.00;;;22.00
12918;BMP180;6526;54.312;13.092;2023-09-19T04:00:32;100733.00;;;22.00
12918;BMP180;6526;54.312;13.092;2023-09-19T04:03:00;100726.00;;;22.00
12918;BMP180;6526;54.312;13.092;2023-09-19T04:05:28;100735.00;;;21.90
12918;BMP180;6526;54.312;13.092;2023-09-19T04:07:54;100733.00;;;21.90
12918;BMP180;6526;54.312;13.092;2023-09-19T04:10:20;100731.00;;;21.90
12918;BMP180;6526;54.312;13.092;2023-09-19T04:12:55;100728.00;;;21.90
12918;BMP180;6526;54.312;13.092;2023-09-19T04:15:22;100733.00;;;21.80
12918;BMP180;6526;54.312;13.092;2023-09-19T04:17:49;100736.00;;;21.70
12918;BMP180;6526;54.312;13.092;2023-09-19T04:20:17;100742.00;;;21.70
12918;BMP180;6526;54.312;13.092;2023-09-19T04:22:45;100746.00;;;21.70
12918;BMP180;6526;54.312;13.092;2023-09-19T04:25:12;100747.00;;;21.60
12918;BMP180;6526;54.312;13.092;2023-09-19T04:27:38;100745.00;;;21.50
12918;BMP180;6526;54.312;13.092;2023-09-19T04:30:06;100742.00;;;21.60
12918;BMP180;6526;54.312;13.092;2023-09-19T04:32:36;100746.00;;;21.50
12918;BMP180;6526;54.312;13.092;2023-09-19T04:35:04;100753.00;;;21.50
12918;BMP180;6526;54.312;13.092;2023-09-19T04:37:32;100760.00;;;21.50
12918;BMP180;6526;54.312;13.092;2023-09-19T04:39:58;100771.00;;;21.40
12918;BMP180;6526;54.312;13.092;2023-09-19T04:42:24;100759.00;;;21.40
12918;BMP180;6526;54.312;13.092;2023-09-19T04:44:51;100762.00;;;21.40
12918;BMP180;6526;54.312;13.092;2023-09-19T04:47:19;100771.00;;;21.40
12918;BMP180;6526;54.312;13.092;2023-09-19T04:49:45;100776.00;;;21.40
12918;BMP180;6526;54.312;13.092;2023-09-19T04:52:11;100775.00;;;21.40
12918;BMP180;6526;54.312;13.092;2023-09-19T04:54:37;100774.00;;;21.30
12918;BMP180;6526;54.312;13.092;2023-09-19T04:57:04;100784.00;;;21.20
12918;BMP180;6526;54.312;13.092;2023-09-19T04:59:31;100785.00;;;21.30
12918;BMP180;6526;54.312;13.092;2023-09-19T05:01:58;100784.00;;;21.20
12918;BMP180;6526;54.312;13.092;2023-09-19T05:04:24;100783.00;;;21.10
12918;BMP180;6526;54.312;13.092;2023-09-19T05:06:50;100780.00;;;21.20
12918;BMP180;6526;54.312;13.092;2023-09-19T05:09:16;100787.00;;;21.10
12918;BMP180;6526;54.312;13.092;2023-09-19T05:11:45;100781.00;;;21.10
12918;BMP180;6526;54.312;13.092;2023-09-19T05:14:12;100785.00;;;21.20
12918;BMP180;6526;54.312;13.092;2023-09-19T05:16:38;100783.00;;;21.10
12918;BMP180;6526;54.312;13.092;2023-09-19T05:19:04;100791.00;;;21.10
12918;BMP180;6526;54.312;13.092;2023-09-19T05:21:31;100791.00;;;21.10
12918;BMP180;6526;54.312;13.092;2023-09-19T05:23:57;100786.00;;;21.10
12918;BMP180;6526;54.312;13.092;2023-09-19T05:26:23;100796.00;;;21.00
12918;BMP180;6526;54.312;13.092;2023-09-19T05:28:49;100799.00;;;21.10
12918;BMP180;6526;54.312;13.092;2023-09-19T05:31:15;100802.00;;;21.10
12918;BMP180;6526;54.312;13.092;2023-09-19T05:33:42;100814.00;;;21.10
12918;BMP180;6526;54.312;13.092;2023-09-19T05:36:08;100804.00;;;21.10
12918;BMP180;6526;54.312;13.092;2023-09-19T05:38:37;100810.00;;;21.20
12918;BMP180;6526;54.312;13.092;2023-09-19T05:41:06;100811.00;;;21.30
12918;BMP180;6526;54.312;13.092;2023-09-19T05:43:33;100809.00;;;21.30
12918;BMP180;6526;54.312;13.092;2023-09-19T05:46:00;100823.00;;;21.30
12918;BMP180;6526;54.312;13.092;2023-09-19T05:48:26;100809.00;;;21.30
12918;BMP180;6526;54.312;13.092;2023-09-19T05:50:53;100813.00;;;21.20
12918;BMP180;6526;54.312;13.092;2023-09-19T05:53:19;100824.00;;;21.30
12918;BMP180;6526;54.312;13.092;2023-09-19T05:55:45;100821.00;;;21.30
12918;BMP180;6526;54.312;13.092;2023-09-19T05:58:11;100825.00;;;21.40
12918;BMP180;6526;54.312;13.092;2023-09-19T06:00:40;100838.00;;;21.40
12918;BMP180;6526;54.312;13.092;2023-09-19T06:03:08;100836.00;;;21.40
12918;BMP180;6526;54.312;13.092;2023-09-19T06:05:34;100836.00;;;21.60
12918;BMP180;6526;54.312;13.092;2023-09-19T06:08:00;100834.00;;;21.60
12918;BMP180;6526;54.312;13.092;2023-09-19T06:10:26;100837.00;;;21.60
12918;BMP180;6526;54.312;13.092;2023-09-19T06:12:54;100839.00;;;21.60
12918;BMP180;6526;54.312;13.092;2023-09-19T06:15:21;100859.00;;;21.70
12918;BMP180;6526;54.312;13.092;2023-09-19T06:17:52;100857.00;;;21.60
12918;BMP180;6526;54.312;13.092;2023-09-19T06:20:23;100859.00;;;21.60
12918;BMP180;6526;54.312;13.092;2023-09-19T06:22:50;100869.00;;;21.70
12918;BMP180;6526;54.312;13.092;2023-09-19T06:25:17;100889.00;;;21.90
12918;BMP180;6526;54.312;13.092;2023-09-19T06:27:47;100874.00;;;22.10
12918;BMP180;6526;54.312;13.092;2023-09-19T06:30:13;100890.00;;;22.30
12918;BMP180;6526;54.312;13.092;2023-09-19T06:32:40;100883.00;;;22.30
12918;BMP180;6526;54.312;13.092;2023-09-19T06:35:10;100879.00;;;22.30
12918;BMP180;6526;54.312;13.092;2023-09-19T06:37:37;100890.00;;;22.50
12918;BMP180;6526;54.312;13.092;2023-09-19T06:40:13;100895.00;;;22.60
12918;BMP180;6526;54.312;13.092;2023-09-19T06:42:44;100897.00;;;22.70
12918;BMP180;6526;54.312;13.092;2023-09-19T06:45:12;100899.00;;;22.70
12918;BMP180;6526;54.312;13.092;2023-09-19T06:47:39;100904.00;;;22.80
12918;BMP180;6526;54.312;13.092;2023-09-19T06:50:06;100903.00;;;22.80
12918;BMP180;6526;54.312;13.092;2023-09-19T06:52:35;100910.00;;;22.90
12918;BMP180;6526;54.312;13.092;2023-09-19T06:55:01;100908.00;;;23.00
12918;BMP180;6526;54.312;13.092;2023-09-19T06:57:29;100911.00;;;23.00
12918;BMP180;6526;54.312;13.092;2023-09-19T06:59:56;100912.00;;;23.20
12918;BMP180;6526;54.312;13.092;2023-09-19T07:02:22;100909.00;;;23.30
12918;BMP180;6526;54.312;13.092;2023-09-19T07:04:48;100894.00;;;23.40
12918;BMP180;6526;54.312;13.092;2023-09-19T07:07:15;100899.00;;;23.40
12918;BMP180;6526;54.312;13.092;2023-09-19T07:09:42;100909.00;;;23.30
12918;BMP180;6526;54.312;13.092;2023-09-19T07:12:08;100911.00;;;23.10
12918;BMP180;6526;54.312;13.092;2023-09-19T07:14:34;100922.00;;;23.00
12918;BMP180;6526;54.312;13.092;2023-09-19T07:17:00;100927.00;;;22.90
12918;BMP180;6526;54.312;13.092;2023-09-19T07:19:27;100934.00;;;22.90
12918;BMP180;6526;54.312;13.092;2023-09-19T07:21:57;100928.00;;;22.80
12918;BMP180;6526;54.312;13.092;2023-09-19T07:24:25;100933.00;;;22.70
12918;BMP180;6526;54.312;13.092;2023-09-19T07:26:52;100922.00;;;22.70
12918;BMP180;6526;54.312;13.092;2023-09-19T07:29:18;100926.00;;;22.60
12918;BMP180;6526;54.312;13.092;2023-09-19T07:31:44;100947.00;;;22.60
12918;BMP180;6526;54.312;13.092;2023-09-19T07:34:10;100940.00;;;22.50
12918;BMP180;6526;54.312;13.092;2023-09-19T07:36:36;100940.00;;;22.50
12918;BMP180;6526;54.312;13.092;2023-09-19T07:39:03;100932.00;;;22.40
12918;BMP180;6526;54.312;13.092;2023-09-19T07:41:33;100939.00;;;22.40
12918;BMP180;6526;54.312;13.092;2023-09-19T07:43:59;100943.00;;;22.50
12918;BMP180;6526;54.312;13.092;2023-09-19T07:46:25;100954.00;;;22.50
12918;BMP180;6526;54.312;13.092;2023-09-19T07:48:52;100956.00;;;22.60
12918;BMP180;6526;54.312;13.092;2023-09-19T07:51:18;100948.00;;;22.70
12918;BMP180;6526;54.312;13.092;2023-09-19T07:53:44;100954.00;;;22.70
12918;BMP180;6526;54.312;13.092;2023-09-19T07:56:11;100951.00;;;22.70
12918;BMP180;6526;54.312;13.092;2023-09-19T07:58:40;100963.00;;;22.60
12918;BMP180;6526;54.312;13.092;2023-09-19T08:01:10;100964.00;;;22.70
12918;BMP180;6526;54.312;13.092;2023-09-19T08:03:37;100969.00;;;22.80
12918;BMP180;6526;54.312;13.092;2023-09-19T08:06:08;100961.00;;;22.80
12918;BMP180;6526;54.312;13.092;2023-09-19T08:08:34;100973.00;;;22.80
12918;BMP180;6526;54.312;13.092;2023-09-19T08:11:04;100968.00;;;22.80
12918;BMP180;6526;54.312;13.092;2023-09-19T08:13:38;100982.00;;;22.70
12918;BMP180;6526;54.312;13.092;2023-09-19T08:16:09;100969.00;;;22.90
12918;BMP180;6526;54.312;13.092;2023-09-19T08:18:36;100975.00;;;23.10
12918;BMP180;6526;54.312;13.092;2023-09-19T08:21:05;100984.00;;;23.30
12918;BMP180;6526;54.312;13.092;2023-09-19T08:23:39;100980.00;;;23.40
12918;BMP180;6526;54.312;13.092;2023-09-19T08:26:05;100982.00;;;23.50
12918;BMP180;6526;54.312;13.092;2023-09-19T08:28:35;101000.00;;;23.60
12918;BMP180;6526;54.312;13.092;2023-09-19T08:31:08;100994.00;;;23.70
12918;BMP180;6526;54.312;13.092;2023-09-19T08:33:35;100994.00;;;23.80
12918;BMP180;6526;54.312;13.092;2023-09-19T08:36:05;100989.00;;;24.00
12918;BMP180;6526;54.312;13.092;2023-09-19T08:38:33;100997.00;;;24.20
12918;BMP180;6526;54.312;13.092;2023-09-19T08:41:00;100985.00;;;24.40
12918;BMP180;6526;54.312;13.092;2023-09-19T08:43:27;100985.00;;;24.60
12918;BMP180;6526;54.312;13.092;2023-09-19T08:46:10;100984.00;;;24.70
12918;BMP180;6526;54.312;13.092;2023-09-19T08:48:53;100986.00;;;24.60
12918;BMP180;6526;54.312;13.092;2023-09-19T08:51:30;100989.00;;;24.50
12918;BMP180;6526;54.312;13.092;2023-09-19T08:54:07;100989.00;;;24.20
12918;BMP180;6526;54.312;13.092;2023-09-19T08:56:34;100987.00;;;24.20
12918;BMP180;6526;54.312;13.092;2023-09-19T08:59:06;100982.00;;;24.30
12918;BMP180;6526;54.312;13.092;2023-09-19T09:01:39;100992.00;;;24.40
12918;BMP180;6526;54.312;13.092;2023-09-19T09:04:09;100986.00;;;24.40
12918;BMP180;6526;54.312;13.092;2023-09-19T09:06:39;100993.00;;;24.40
12918;BMP180;6526;54.312;13.092;2023-09-19T09:09:09;100994.00;;;24.60
12918;BMP180;6526;54.312;13.092;2023-09-19T09:11:36;100992.00;;;24.80
12918;BMP180;6526;54.312;13.092;2023-09-19T09:14:06;100993.00;;;24.80
12918;BMP180;6526;54.312;13.092;2023-09-19T09:16:33;101003.00;;;24.80
12918;BMP180;6526;54.312;13.092;2023-09-19T09:19:00;101007.00;;;24.70
12918;BMP180;6526;54.312;13.092;2023-09-19T09:21:27;101006.00;;;24.60
12918;BMP180;6526;54.312;13.092;2023-09-19T09:23:54;101003.00;;;24.50
12918;BMP180;6526;54.312;13.092;2023-09-19T09:26:42;101023.00;;;24.30
12918;BMP180;6526;54.312;13.092;2023-09-19T09:29:08;101019.00;;;24.10
12918;BMP180;6526;54.312;13.092;2023-09-19T09:31:34;101027.00;;;24.10
12918;BMP180;6526;54.312;13.092;2023-09-19T09:34:00;101027.00;;;24.10
12918;BMP180;6526;54.312;13.092;2023-09-19T09:36:38;101028.00;;;24.00
12918;BMP180;6526;54.312;13.092;2023-09-19T09:39:04;101046.00;;;23.90
12918;BMP180;6526;54.312;13.092;2023-09-19T09:41:50;101030.00;;;23.90
12918;BMP180;6526;54.312;13.092;2023-09-19T09:44:17;101039.00;;;24.00
12918;BMP180;6526;54.312;13.092;2023-09-19T09:46:45;101037.00;;;23.90
12918;BMP180;6526;54.312;13.092;2023-09-19T09:49:25;101039.00;;;23.90
12918;BMP180;6526;54.312;13.092;2023-09-19T09:51:59;101041.00;;;24.00
12918;BMP180;6526;54.312;13.092;2023-09-19T09:54:27;101039.00;;;24.10
12918;BMP180;6526;54.312;13.092;2023-09-19T09:57:00;101035.00;;;24.00
12918;BMP180;6526;54.312;13.092;2023-09-19T10:02:29;101041.00;;;23.60
12918;BMP180;6526;54.312;13.092;2023-09-19T10:04:58;101040.00;;;23.60
12918;BMP180;6526;54.312;13.092;2023-09-19T10:07:33;101039.00;;;23.70
12918;BMP180;6526;54.312;13.092;2023-09-19T10:10:02;101044.00;;;23.80
12918;BMP180;6526;54.312;13.092;2023-09-19T10:12:44;101038.00;;;23.80
12918;BMP180;6526;54.312;13.092;2023-09-19T10:15:16;101043.00;;;23.80
12918;BMP180;6526;54.312;13.092;2023-09-19T10:17:44;101058.00;;;23.80
12918;BMP180;6526;54.312;13.092;2023-09-19T10:20:16;101047.00;;;23.90
12918;BMP180;6526;54.312;13.092;2023-09-19T10:22:59;101051.00;;;23.80
12918;BMP180;6526;54.312;13.092;2023-09-19T10:25:29;101043.00;;;23.90
12918;BMP180;6526;54.312;13.092;2023-09-19T10:27:57;101052.00;;;23.90
12918;BMP180;6526;54.312;13.092;2023-09-19T10:30:25;101049.00;;;23.80
12918;BMP180;6526;54.312;13.092;2023-09-19T10:33:04;101047.00;;;23.80
12918;BMP180;6526;54.312;13.092;2023-09-19T10:35:32;101047.00;;;23.90
12918;BMP180;6526;54.312;13.092;2023-09-19T10:38:04;101052.00;;;23.80
12918;BMP180;6526;54.312;13.092;2023-09-19T10:40:33;101052.00;;;23.80
12918;BMP180;6526;54.312;13.092;2023-09-19T10:43:03;101043.00;;;23.70
12918;BMP180;6526;54.312;13.092;2023-09-19T10:45:34;101053.00;;;23.60
12918;BMP180;6526;54.312;13.092;2023-09-19T10:48:01;101070.00;;;23.60
12918;BMP180;6526;54.312;13.092;2023-09-19T10:50:34;101055.00;;;23.50
12918;BMP180;6526;54.312;13.092;2023-09-19T10:53:04;101056.00;;;23.30
12918;BMP180;6526;54.312;13.092;2023-09-19T10:55:33;101051.00;;;23.20
12918;BMP180;6526;54.312;13.092;2023-09-19T10:58:01;101045.00;;;23.20
12918;BMP180;6526;54.312;13.092;2023-09-19T11:00:31;101045.00;;;23.30
12918;BMP180;6526;54.312;13.092;2023-09-19T11:06:03;101058.00;;;23.40
12918;BMP180;6526;54.312;13.092;2023-09-19T11:08:46;101056.00;;;23.40
12918;BMP180;6526;54.312;13.092;2023-09-19T11:25:42;101069.00;;;23.00
12918;BMP180;6526;54.312;13.092;2023-09-19T11:30:48;101056.00;;;23.10
12918;BMP180;6526;54.312;13.092;2023-09-19T11:33:33;101068.00;;;23.00
12918;BMP180;6526;54.312;13.092;2023-09-19T11:36:10;101073.00;;;23.00
12918;BMP180;6526;54.312;13.092;2023-09-19T11:44:30;101070.00;;;23.10
12918;BMP180;6526;54.312;13.092;2023-09-19T11:47:09;101082.00;;;23.10
12918;BMP180;6526;54.312;13.092;2023-09-19T11:49:40;101078.00;;;23.00
12918;BMP180;6526;54.312;13.092;2023-09-19T11:52:07;101075.00;;;23.00
12918;BMP180;6526;54.312;13.092;2023-09-19T11:54:35;101090.00;;;23.10
12918;BMP180;6526;54.312;13.092;2023-09-19T11:57:06;101054.00;;;23.20
12918;BMP180;6526;54.312;13.092;2023-09-19T11:59:33;101084.00;;;23.30
12918;BMP180;6526;54.312;13.092;2023-09-19T12:02:06;101092.00;;;23.40
12918;BMP180;6526;54.312;13.092;2023-09-19T12:04:41;101081.00;;;23.30
12918;BMP180;6526;54.312;13.092;2023-09-19T12:07:12;101094.00;;;23.30
12918;BMP180;6526;54.312;13.092;2023-09-19T12:09:43;101090.00;;;23.30
12918;BMP180;6526;54.312;13.092;2023-09-19T12:12:10;101084.00;;;23.30
12918;BMP180;6526;54.312;13.092;2023-09-19T12:14:50;101074.00;;;23.30
12918;BMP180;6526;54.312;13.092;2023-09-19T12:17:17;101074.00;;;23.40
12918;BMP180;6526;54.312;13.092;2023-09-19T12:19:56;101072.00;;;23.50
12918;BMP180;6526;54.312;13.092;2023-09-19T12:22:23;101083.00;;;23.50
12918;BMP180;6526;54.312;13.092;2023-09-19T12:24:49;101072.00;;;23.60
12918;BMP180;6526;54.312;13.092;2023-09-19T12:27:16;101080.00;;;23.60
12918;BMP180;6526;54.312;13.092;2023-09-19T12:29:47;101063.00;;;23.50
12918;BMP180;6526;54.312;13.092;2023-09-19T12:32:17;101076.00;;;23.50
12918;BMP180;6526;54.312;13.092;2023-09-19T12:34:51;101075.00;;;23.50
12918;BMP180;6526;54.312;13.092;2023-09-19T12:37:18;101087.00;;;23.60
12918;BMP180;6526;54.312;13.092;2023-09-19T12:39:50;101080.00;;;23.60
12918;BMP180;6526;54.312;13.092;2023-09-19T12:42:25;101085.00;;;23.60
12918;BMP180;6526;54.312;13.092;2023-09-19T12:44:57;101077.00;;;23.50
12918;BMP180;6526;54.312;13.092;2023-09-19T12:47:28;101081.00;;;23.50
12918;BMP180;6526;54.312;13.092;2023-09-19T12:50:13;101099.00;;;23.50
12918;BMP180;6526;54.312;13.092;2023-09-19T12:52:52;101081.00;;;23.50
12918;BMP180;6526;54.312;13.092;2023-09-19T12:55:25;101088.00;;;23.50
12918;BMP180;6526;54.312;13.092;2023-09-19T12:58:12;101086.00;;;23.50
12918;BMP180;6526;54.312;13.092;2023-09-19T13:00:43;101085.00;;;23.50
12918;BMP180;6526;54.312;13.092;2023-09-19T13:03:26;101101.00;;;23.50
12918;BMP180;6526;54.312;13.092;2023-09-19T13:05:56;101092.00;;;23.60
12918;BMP180;6526;54.312;13.092;2023-09-19T13:08:31;101087.00;;;23.50
12918;BMP180;6526;54.312;13.092;2023-09-19T13:11:12;101092.00;;;23.50
12918;BMP180;6526;54.312;13.092;2023-09-19T13:16:07;101080.00;;;23.60
12918;BMP180;6526;54.312;13.092;2023-09-19T13:18:42;101086.00;;;23.70
12918;BMP180;6526;54.312;13.092;2023-09-19T13:21:11;101075.00;;;23.70
12918;BMP180;6526;54.312;13.092;2023-09-19T13:24:23;101084.00;;;23.60
12918;BMP180;6526;54.312;13.092;2023-09-19T13:26:52;101085.00;;;23.60
12918;BMP180;6526;54.312;13.092;2023-09-19T13:29:18;101082.00;;;23.60
12918;BMP180;6526;54.312;13.092;2023-09-19T13:31:52;101072.00;;;23.40
12918;BMP180;6526;54.312;13.092;2023-09-19T13:34:21;101073.00;;;23.40
12918;BMP180;6526;54.312;13.092;2023-09-19T13:36:47;101089.00;;;23.50
12918;BMP180;6526;54.312;13.092;2023-09-19T13:39:19;101088.00;;;23.60
12918;BMP180;6526;54.312;13.092;2023-09-19T13:41:46;101078.00;;;23.60
12918;BMP180;6526;54.312;13.092;2023-09-19T13:44:13;101090.00;;;23.60
12918;BMP180;6526;54.312;13.092;2023-09-19T13:46:39;101093.00;;;23.60
12918;BMP180;6526;54.312;13.092;2023-09-19T13:49:06;101083.00;;;23.70
12918;BMP180;6526;54.312;13.092;2023-09-19T13:51:32;101081.00;;;23.60
12918;BMP180;6526;54.312;13.092;2023-09-19T13:53:59;101077.00;;;23.60
12918;BMP180;6526;54.312;13.092;2023-09-19T13:56:28;101080.00;;;23.60
12918;BMP180;6526;54.312;13.092;2023-09-19T13:58:56;101070.00;;;23.50
12918;BMP180;6526;54.312;13.092;2023-09-19T14:01:22;101079.00;;;23.40
12918;BMP180;6526;54.312;13.092;2023-09-19T14:03:48;101079.00;;;23.40
12918;BMP180;6526;54.312;13.092;2023-09-19T14:06:17;101081.00;;;23.40
12918;BMP180;6526;54.312;13.092;2023-09-19T14:08:44;101080.00;;;23.40
12918;BMP180;6526;54.312;13.092;2023-09-19T14:11:13;101076.00;;;23.40
12918;BMP180;6526;54.312;13.092;2023-09-19T14:13:40;101074.00;;;23.40
12918;BMP180;6526;54.312;13.092;2023-09-19T14:16:06;101079.00;;;23.20
12918;BMP180;6526;54.312;13.092;2023-09-19T14:18:35;101071.00;;;23.20
12918;BMP180;6526;54.312;13.092;2023-09-19T14:21:07;101073.00;;;23.20
12918;BMP180;6526;54.312;13.092;2023-09-19T14:23:37;101074.00;;;23.10
12918;BMP180;6526;54.312;13.092;2023-09-19T14:26:03;101062.00;;;23.10
12918;BMP180;6526;54.312;13.092;2023-09-19T14:28:31;101069.00;;;23.10
12918;BMP180;6526;54.312;13.092;2023-09-19T14:31:04;101071.00;;;23.20
12918;BMP180;6526;54.312;13.092;2023-09-19T14:33:31;101072.00;;;23.00
12918;BMP180;6526;54.312;13.092;2023-09-19T14:35:57;101056.00;;;23.10
12918;BMP180;6526;54.312;13.092;2023-09-19T14:38:24;101060.00;;;23.00
12918;BMP180;6526;54.312;13.092;2023-09-19T14:41:00;101064.00;;;23.10
12918;BMP180;6526;54.312;13.092;2023-09-19T14:43:26;101052.00;;;23.10
12918;BMP180;6526;54.312;13.092;2023-09-19T14:45:52;101049.00;;;23.20
12918;BMP180;6526;54.312;13.092;2023-09-19T14:48:18;101065.00;;;23.20
12918;BMP180;6526;54.312;13.092;2023-09-19T14:50:44;101066.00;;;23.10
12918;BMP180;6526;54.312;13.092;2023-09-19T14:53:10;101063.00;;;23.20
12918;BMP180;6526;54.312;13.092;2023-09-19T14:55:38;101060.00;;;23.20